sensor_id;sensor_type;location;lat;lon;timestamp;P1;durP1;ratioP1;P2;durP2;ratioP2
65759;SDS011;52496;51.082;5.066;2023-03-14T00:02:18;4.50;;;1.92;;
65759;SDS011;52496;51.082;5.066;2023-03-14T00:04:48;7.15;;;1.50;;
65759;SDS011;52496;51.082;5.066;2023-03-14T00:07:19;3.95;;;1.48;;
65759;SDS011;52496;51.082;5.066;2023-03-14T00:09:50;10.68;;;1.95;;
65759;SDS011;52496;51.082;5.066;2023-03-14T00:12:21;4.60;;;1.60;;
65759;SDS011;52496;51.082;5.066;2023-03-14T00:14:52;7.00;;;3.10;;
65759;SDS011;52496;51.082;5.066;2023-03-14T00:17:23;6.10;;;1.60;;
65759;SDS011;52496;51.082;5.066;2023-03-14T00:19:55;5.25;;;2.05;;
65759;SDS011;52496;51.082;5.066;2023-03-14T00:22:26;6.47;;;2.47;;
65759;SDS011;52496;51.082;5.066;2023-03-14T00:24:57;5.78;;;1.77;;
65759;SDS011;52496;51.082;5.066;2023-03-14T00:27:27;5.97;;;1.40;;
65759;SDS011;52496;51.082;5.066;2023-03-14T00:29:58;4.80;;;1.48;;
65759;SDS011;52496;51.082;5.066;2023-03-14T00:32:29;5.15;;;1.90;;
65759;SDS011;52496;51.082;5.066;2023-03-14T00:34:59;4.30;;;1.30;;
65759;SDS011;52496;51.082;5.066;2023-03-14T00:37:30;4.55;;;1.35;;
65759;SDS011;52496;51.082;5.066;2023-03-14T00:40:01;8.27;;;1.92;;
65759;SDS011;52496;51.082;5.066;2023-03-14T00:42:33;5.22;;;1.58;;
65759;SDS011;52496;51.082;5.066;2023-03-14T00:45:03;13.45;;;1.75;;
65759;SDS011;52496;51.082;5.066;2023-03-14T00:47:34;7.07;;;1.92;;
65759;SDS011;52496;51.082;5.066;2023-03-14T00:50:05;4.47;;;1.67;;
65759;SDS011;52496;51.082;5.066;2023-03-14T00:52:36;6.78;;;1.88;;
65759;SDS011;52496;51.082;5.066;2023-03-14T00:55:07;4.97;;;1.80;;
65759;SDS011;52496;51.082;5.066;2023-03-14T00:57:38;5.95;;;1.60;;
65759;SDS011;52496;51.082;5.066;2023-03-14T01:00:08;7.88;;;1.70;;
65759;SDS011;52496;51.082;5.066;2023-03-14T01:02:42;7.32;;;1.88;;
65759;SDS011;52496;51.082;5.066;2023-03-14T01:05:14;6.30;;;1.80;;
65759;SDS011;52496;51.082;5.066;2023-03-14T01:07:44;8.73;;;1.83;;
65759;SDS011;52496;51.082;5.066;2023-03-14T01:10:15;6.18;;;1.67;;
65759;SDS011;52496;51.082;5.066;2023-03-14T01:12:46;11.27;;;2.03;;
65759;SDS011;52496;51.082;5.066;2023-03-14T01:15:16;4.35;;;1.77;;
65759;SDS011;52496;51.082;5.066;2023-03-14T01:17:49;8.52;;;2.33;;
65759;SDS011;52496;51.082;5.066;2023-03-14T01:20:19;12.70;;;2.53;;
65759;SDS011;52496;51.082;5.066;2023-03-14T01:22:50;6.53;;;2.15;;
65759;SDS011;52496;51.082;5.066;2023-03-14T01:25:21;9.10;;;2.53;;
65759;SDS011;52496;51.082;5.066;2023-03-14T01:27:52;6.38;;;2.13;;
65759;SDS011;52496;51.082;5.066;2023-03-14T01:30:22;8.43;;;2.00;;
65759;SDS011;52496;51.082;5.066;2023-03-14T01:32:53;6.60;;;2.33;;
65759;SDS011;52496;51.082;5.066;2023-03-14T01:35:23;6.97;;;2.03;;
65759;SDS011;52496;51.082;5.066;2023-03-14T01:37:54;5.57;;;1.80;;
65759;SDS011;52496;51.082;5.066;2023-03-14T01:40:25;8.60;;;1.98;;
65759;SDS011;52496;51.082;5.066;2023-03-14T01:42:56;6.95;;;1.73;;
65759;SDS011;52496;51.082;5.066;2023-03-14T01:48:37;11.77;;;2.17;;
65759;SDS011;52496;51.082;5.066;2023-03-14T01:51:15;7.93;;;2.22;;
65759;SDS011;52496;51.082;5.066;2023-03-14T01:53:51;10.27;;;3.05;;
65759;SDS011;52496;51.082;5.066;2023-03-14T01:56:27;9.18;;;2.25;;
65759;SDS011;52496;51.082;5.066;2023-03-14T01:58:58;7.93;;;2.40;;
65759;SDS011;52496;51.082;5.066;2023-03-14T02:01:31;10.95;;;2.13;;
65759;SDS011;52496;51.082;5.066;2023-03-14T02:04:02;7.43;;;2.25;;
65759;SDS011;52496;51.082;5.066;2023-03-14T02:06:44;13.32;;;2.53;;
65759;SDS011;52496;51.082;5.066;2023-03-14T02:09:20;12.20;;;2.13;;
65759;SDS011;52496;51.082;5.066;2023-03-14T02:11:51;7.63;;;2.40;;
65759;SDS011;52496;51.082;5.066;2023-03-14T02:14:25;6.78;;;2.15;;
65759;SDS011;52496;51.082;5.066;2023-03-14T02:17:02;9.15;;;2.42;;
65759;SDS011;52496;51.082;5.066;2023-03-14T02:22:26;9.20;;;2.28;;
65759;SDS011;52496;51.082;5.066;2023-03-14T02:27:38;7.78;;;2.03;;
65759;SDS011;52496;51.082;5.066;2023-03-14T02:30:28;6.47;;;2.25;;
65759;SDS011;52496;51.082;5.066;2023-03-14T02:33:04;5.20;;;2.22;;
65759;SDS011;52496;51.082;5.066;2023-03-14T02:35:44;9.73;;;2.15;;
65759;SDS011;52496;51.082;5.066;2023-03-14T02:38:28;5.97;;;1.88;;
65759;SDS011;52496;51.082;5.066;2023-03-14T02:41:03;6.30;;;1.92;;
65759;SDS011;52496;51.082;5.066;2023-03-14T02:43:34;8.57;;;1.98;;
65759;SDS011;52496;51.082;5.066;2023-03-14T02:46:05;8.23;;;1.90;;
65759;SDS011;52496;51.082;5.066;2023-03-14T02:48:49;4.32;;;1.40;;
65759;SDS011;52496;51.082;5.066;2023-03-14T02:51:21;10.07;;;1.65;;
65759;SDS011;52496;51.082;5.066;2023-03-14T02:53:53;4.43;;;1.58;;
65759;SDS011;52496;51.082;5.066;2023-03-14T02:56:24;7.50;;;1.70;;
65759;SDS011;52496;51.082;5.066;2023-03-14T02:58:55;4.15;;;1.30;;
65759;SDS011;52496;51.082;5.066;2023-03-14T03:01:27;4.32;;;1.48;;
65759;SDS011;52496;51.082;5.066;2023-03-14T03:03:58;4.32;;;1.63;;
65759;SDS011;52496;51.082;5.066;2023-03-14T03:06:28;2.70;;;1.23;;
65759;SDS011;52496;51.082;5.066;2023-03-14T03:08:59;4.82;;;1.23;;
65759;SDS011;52496;51.082;5.066;2023-03-14T03:11:30;9.75;;;3.08;;
65759;SDS011;52496;51.082;5.066;2023-03-14T03:14:01;6.40;;;1.45;;
65759;SDS011;52496;51.082;5.066;2023-03-14T03:16:32;4.05;;;1.55;;
65759;SDS011;52496;51.082;5.066;2023-03-14T03:19:03;4.43;;;1.60;;
65759;SDS011;52496;51.082;5.066;2023-03-14T03:21:33;8.07;;;1.60;;
65759;SDS011;52496;51.082;5.066;2023-03-14T03:24:05;4.57;;;1.40;;
65759;SDS011;52496;51.082;5.066;2023-03-14T03:26:36;4.32;;;1.67;;
65759;SDS011;52496;51.082;5.066;2023-03-14T03:29:07;7.05;;;1.95;;
65759;SDS011;52496;51.082;5.066;2023-03-14T03:31:38;7.45;;;1.70;;
65759;SDS011;52496;51.082;5.066;2023-03-14T03:34:08;3.88;;;1.35;;
65759;SDS011;52496;51.082;5.066;2023-03-14T03:36:39;7.88;;;2.08;;
65759;SDS011;52496;51.082;5.066;2023-03-14T03:39:11;3.83;;;1.27;;
65759;SDS011;52496;51.082;5.066;2023-03-14T03:41:41;4.57;;;1.33;;
65759;SDS011;52496;51.082;5.066;2023-03-14T03:44:12;3.15;;;1.10;;
65759;SDS011;52496;51.082;5.066;2023-03-14T03:46:43;4.13;;;1.40;;
65759;SDS011;52496;51.082;5.066;2023-03-14T03:49:14;7.40;;;2.13;;
65759;SDS011;52496;51.082;5.066;2023-03-14T03:51:44;4.40;;;1.60;;
65759;SDS011;52496;51.082;5.066;2023-03-14T03:54:15;8.98;;;1.70;;
65759;SDS011;52496;51.082;5.066;2023-03-14T03:56:45;7.65;;;1.77;;
65759;SDS011;52496;51.082;5.066;2023-03-14T03:59:16;4.07;;;1.77;;
65759;SDS011;52496;51.082;5.066;2023-03-14T04:01:47;12.52;;;2.08;;
65759;SDS011;52496;51.082;5.066;2023-03-14T04:04:18;6.75;;;2.15;;
65759;SDS011;52496;51.082;5.066;2023-03-14T04:06:49;9.13;;;2.85;;
65759;SDS011;52496;51.082;5.066;2023-03-14T04:09:20;6.57;;;2.38;;
65759;SDS011;52496;51.082;5.066;2023-03-14T04:11:50;8.93;;;2.42;;
65759;SDS011;52496;51.082;5.066;2023-03-14T04:14:21;10.02;;;2.80;;
65759;SDS011;52496;51.082;5.066;2023-03-14T04:16:51;5.95;;;2.42;;
65759;SDS011;52496;51.082;5.066;2023-03-14T04:19:22;9.43;;;3.03;;
65759;SDS011;52496;51.082;5.066;2023-03-14T04:21:53;11.18;;;2.85;;
65759;SDS011;52496;51.082;5.066;2023-03-14T04:24:23;9.07;;;2.67;;
65759;SDS011;52496;51.082;5.066;2023-03-14T04:26:54;9.02;;;3.13;;
65759;SDS011;52496;51.082;5.066;2023-03-14T04:29:24;14.85;;;3.30;;
65759;SDS011;52496;51.082;5.066;2023-03-14T04:31:55;12.80;;;3.20;;
65759;SDS011;52496;51.082;5.066;2023-03-14T04:34:25;7.03;;;3.30;;
65759;SDS011;52496;51.082;5.066;2023-03-14T04:36:56;10.40;;;2.63;;
65759;SDS011;52496;51.082;5.066;2023-03-14T04:39:27;11.85;;;3.55;;
65759;SDS011;52496;51.082;5.066;2023-03-14T04:41:57;9.48;;;2.70;;
65759;SDS011;52496;51.082;5.066;2023-03-14T04:44:28;9.40;;;2.63;;
65759;SDS011;52496;51.082;5.066;2023-03-14T04:46:59;7.45;;;2.55;;
65759;SDS011;52496;51.082;5.066;2023-03-14T04:49:29;8.20;;;2.95;;
65759;SDS011;52496;51.082;5.066;2023-03-14T04:52:00;11.57;;;2.80;;
65759;SDS011;52496;51.082;5.066;2023-03-14T04:54:31;6.57;;;2.38;;
65759;SDS011;52496;51.082;5.066;2023-03-14T04:57:01;7.57;;;2.33;;
65759;SDS011;52496;51.082;5.066;2023-03-14T04:59:32;7.13;;;2.55;;
65759;SDS011;52496;51.082;5.066;2023-03-14T05:02:02;7.38;;;2.60;;
65759;SDS011;52496;51.082;5.066;2023-03-14T05:04:33;8.68;;;3.58;;
65759;SDS011;52496;51.082;5.066;2023-03-14T05:07:04;6.18;;;2.40;;
65759;SDS011;52496;51.082;5.066;2023-03-14T05:09:34;10.32;;;2.60;;
65759;SDS011;52496;51.082;5.066;2023-03-14T05:12:05;9.10;;;2.45;;
65759;SDS011;52496;51.082;5.066;2023-03-14T05:14:36;8.18;;;2.83;;
65759;SDS011;52496;51.082;5.066;2023-03-14T05:17:07;9.52;;;2.78;;
65759;SDS011;52496;51.082;5.066;2023-03-14T05:19:38;7.22;;;2.95;;
65759;SDS011;52496;51.082;5.066;2023-03-14T05:22:08;7.55;;;2.60;;
65759;SDS011;52496;51.082;5.066;2023-03-14T05:24:40;13.27;;;2.80;;
65759;SDS011;52496;51.082;5.066;2023-03-14T05:27:10;7.60;;;2.63;;
65759;SDS011;52496;51.082;5.066;2023-03-14T05:29:41;8.52;;;2.28;;
65759;SDS011;52496;51.082;5.066;2023-03-14T05:32:11;6.57;;;2.80;;
65759;SDS011;52496;51.082;5.066;2023-03-14T05:34:42;6.90;;;2.55;;
65759;SDS011;52496;51.082;5.066;2023-03-14T05:37:12;7.47;;;2.55;;
65759;SDS011;52496;51.082;5.066;2023-03-14T05:39:43;7.78;;;2.47;;
65759;SDS011;52496;51.082;5.066;2023-03-14T05:42:13;8.20;;;2.75;;
65759;SDS011;52496;51.082;5.066;2023-03-14T05:44:44;5.47;;;2.55;;
65759;SDS011;52496;51.082;5.066;2023-03-14T05:47:14;5.82;;;2.47;;
65759;SDS011;52496;51.082;5.066;2023-03-14T05:49:45;7.18;;;2.63;;
65759;SDS011;52496;51.082;5.066;2023-03-14T05:52:16;12.57;;;3.00;;
65759;SDS011;52496;51.082;5.066;2023-03-14T05:54:47;8.15;;;2.60;;
65759;SDS011;52496;51.082;5.066;2023-03-14T05:57:17;8.65;;;2.30;;
65759;SDS011;52496;51.082;5.066;2023-03-14T05:59:48;7.55;;;2.33;;
65759;SDS011;52496;51.082;5.066;2023-03-14T06:02:18;6.65;;;2.30;;
65759;SDS011;52496;51.082;5.066;2023-03-14T06:04:49;5.00;;;2.40;;
65759;SDS011;52496;51.082;5.066;2023-03-14T06:07:19;5.72;;;2.50;;
65759;SDS011;52496;51.082;5.066;2023-03-14T06:09:50;6.63;;;2.45;;
65759;SDS011;52496;51.082;5.066;2023-03-14T06:12:20;6.38;;;2.25;;
65759;SDS011;52496;51.082;5.066;2023-03-14T06:14:51;4.97;;;2.08;;
65759;SDS011;52496;51.082;5.066;2023-03-14T06:17:21;8.10;;;2.20;;
65759;SDS011;52496;51.082;5.066;2023-03-14T06:19:52;6.85;;;3.08;;
65759;SDS011;52496;51.082;5.066;2023-03-14T06:22:23;4.60;;;2.38;;
65759;SDS011;52496;51.082;5.066;2023-03-14T06:24:53;6.15;;;2.60;;
65759;SDS011;52496;51.082;5.066;2023-03-14T06:27:24;7.82;;;2.45;;
65759;SDS011;52496;51.082;5.066;2023-03-14T06:29:55;5.45;;;2.60;;
65759;SDS011;52496;51.082;5.066;2023-03-14T06:32:25;9.63;;;2.60;;
65759;SDS011;52496;51.082;5.066;2023-03-14T06:34:56;7.18;;;2.60;;
65759;SDS011;52496;51.082;5.066;2023-03-14T06:37:31;8.45;;;2.78;;
65759;SDS011;52496;51.082;5.066;2023-03-14T06:40:01;8.15;;;3.30;;
65759;SDS011;52496;51.082;5.066;2023-03-14T06:42:33;6.50;;;3.03;;
65759;SDS011;52496;51.082;5.066;2023-03-14T06:45:03;7.90;;;2.58;;
65759;SDS011;52496;51.082;5.066;2023-03-14T06:47:36;7.70;;;4.00;;
65759;SDS011;52496;51.082;5.066;2023-03-14T06:50:08;8.43;;;2.85;;
65759;SDS011;52496;51.082;5.066;2023-03-14T06:52:40;4.82;;;2.72;;
65759;SDS011;52496;51.082;5.066;2023-03-14T06:55:17;9.32;;;2.88;;
65759;SDS011;52496;51.082;5.066;2023-03-14T06:57:48;5.95;;;2.83;;
65759;SDS011;52496;51.082;5.066;2023-03-14T07:00:18;4.68;;;2.65;;
65759;SDS011;52496;51.082;5.066;2023-03-14T07:02:49;4.80;;;2.53;;
65759;SDS011;52496;51.082;5.066;2023-03-14T07:05:20;6.93;;;2.40;;
65759;SDS011;52496;51.082;5.066;2023-03-14T07:07:51;5.53;;;2.63;;
65759;SDS011;52496;51.082;5.066;2023-03-14T07:10:22;6.88;;;2.78;;
65759;SDS011;52496;51.082;5.066;2023-03-14T07:12:52;6.70;;;2.78;;
65759;SDS011;52496;51.082;5.066;2023-03-14T07:15:23;7.65;;;2.63;;
65759;SDS011;52496;51.082;5.066;2023-03-14T07:17:54;5.80;;;2.83;;
65759;SDS011;52496;51.082;5.066;2023-03-14T07:23:52;9.07;;;3.38;;
65759;SDS011;52496;51.082;5.066;2023-03-14T07:26:22;13.45;;;4.00;;
65759;SDS011;52496;51.082;5.066;2023-03-14T07:28:53;2.65;;;1.70;;
65759;SDS011;52496;51.082;5.066;2023-03-14T07:31:23;2.20;;;1.33;;
65759;SDS011;52496;51.082;5.066;2023-03-14T07:33:55;1.05;;;0.77;;
65759;SDS011;52496;51.082;5.066;2023-03-14T07:39:53;1.67;;;1.10;;
65759;SDS011;52496;51.082;5.066;2023-03-14T07:42:23;2.67;;;1.13;;
65759;SDS011;52496;51.082;5.066;2023-03-14T07:44:57;2.45;;;1.42;;
65759;SDS011;52496;51.082;5.066;2023-03-14T07:47:28;3.13;;;1.60;;
65759;SDS011;52496;51.082;5.066;2023-03-14T07:49:58;6.63;;;1.70;;
65759;SDS011;52496;51.082;5.066;2023-03-14T07:52:29;2.58;;;1.45;;
65759;SDS011;52496;51.082;5.066;2023-03-14T07:54:59;1.65;;;1.30;;
65759;SDS011;52496;51.082;5.066;2023-03-14T07:57:30;5.45;;;1.83;;
65759;SDS011;52496;51.082;5.066;2023-03-14T08:00:03;3.15;;;1.70;;
65759;SDS011;52496;51.082;5.066;2023-03-14T08:02:35;2.60;;;1.40;;
65759;SDS011;52496;51.082;5.066;2023-03-14T08:05:14;3.33;;;1.45;;
65759;SDS011;52496;51.082;5.066;2023-03-14T08:07:45;2.25;;;1.40;;
65759;SDS011;52496;51.082;5.066;2023-03-14T08:10:16;3.92;;;1.63;;
65759;SDS011;52496;51.082;5.066;2023-03-14T08:12:56;7.95;;;1.90;;
65759;SDS011;52496;51.082;5.066;2023-03-14T08:15:28;4.70;;;1.88;;
65759;SDS011;52496;51.082;5.066;2023-03-14T08:18:00;6.03;;;1.50;;
65759;SDS011;52496;51.082;5.066;2023-03-14T08:20:30;2.67;;;1.60;;
65759;SDS011;52496;51.082;5.066;2023-03-14T08:23:01;4.85;;;2.00;;
65759;SDS011;52496;51.082;5.066;2023-03-14T08:25:32;3.97;;;1.85;;
65759;SDS011;52496;51.082;5.066;2023-03-14T08:28:03;7.65;;;2.30;;
65759;SDS011;52496;51.082;5.066;2023-03-14T08:30:34;4.18;;;2.53;;
65759;SDS011;52496;51.082;5.066;2023-03-14T08:33:05;3.75;;;2.35;;
65759;SDS011;52496;51.082;5.066;2023-03-14T08:35:37;6.38;;;2.25;;
65759;SDS011;52496;51.082;5.066;2023-03-14T08:38:09;3.83;;;2.30;;
65759;SDS011;52496;51.082;5.066;2023-03-14T08:40:40;9.10;;;3.15;;
65759;SDS011;52496;51.082;5.066;2023-03-14T08:43:11;5.70;;;3.25;;
65759;SDS011;52496;51.082;5.066;2023-03-14T08:45:42;5.50;;;2.50;;
65759;SDS011;52496;51.082;5.066;2023-03-14T08:48:12;4.63;;;2.60;;
65759;SDS011;52496;51.082;5.066;2023-03-14T08:50:46;4.97;;;2.72;;
65759;SDS011;52496;51.082;5.066;2023-03-14T08:53:21;5.60;;;2.67;;
65759;SDS011;52496;51.082;5.066;2023-03-14T08:55:53;6.25;;;2.70;;
65759;SDS011;52496;51.082;5.066;2023-03-14T08:58:24;8.25;;;2.47;;
65759;SDS011;52496;51.082;5.066;2023-03-14T09:00:54;5.03;;;2.25;;
65759;SDS011;52496;51.082;5.066;2023-03-14T09:03:25;3.92;;;2.22;;
65759;SDS011;52496;51.082;5.066;2023-03-14T09:05:56;6.32;;;2.20;;
65759;SDS011;52496;51.082;5.066;2023-03-14T09:08:33;5.00;;;2.40;;
65759;SDS011;52496;51.082;5.066;2023-03-14T09:11:06;5.15;;;2.47;;
65759;SDS011;52496;51.082;5.066;2023-03-14T09:13:38;6.45;;;2.67;;
65759;SDS011;52496;51.082;5.066;2023-03-14T09:16:10;7.38;;;2.78;;
65759;SDS011;52496;51.082;5.066;2023-03-14T09:18:41;9.05;;;2.88;;
65759;SDS011;52496;51.082;5.066;2023-03-14T09:21:11;8.73;;;3.80;;
65759;SDS011;52496;51.082;5.066;2023-03-14T09:23:42;6.65;;;2.90;;
65759;SDS011;52496;51.082;5.066;2023-03-14T09:26:13;7.55;;;3.10;;
65759;SDS011;52496;51.082;5.066;2023-03-14T09:28:43;8.05;;;2.70;;
65759;SDS011;52496;51.082;5.066;2023-03-14T09:31:14;3.50;;;2.03;;
65759;SDS011;52496;51.082;5.066;2023-03-14T09:33:45;6.43;;;2.08;;
65759;SDS011;52496;51.082;5.066;2023-03-14T09:36:15;6.57;;;2.50;;
65759;SDS011;52496;51.082;5.066;2023-03-14T09:38:46;4.88;;;2.05;;
65759;SDS011;52496;51.082;5.066;2023-03-14T09:41:25;5.03;;;2.85;;
65759;SDS011;52496;51.082;5.066;2023-03-14T09:44:13;6.82;;;2.53;;
65759;SDS011;52496;51.082;5.066;2023-03-14T09:46:48;6.10;;;2.25;;
65759;SDS011;52496;51.082;5.066;2023-03-14T09:49:29;7.97;;;4.03;;
65759;SDS011;52496;51.082;5.066;2023-03-14T09:52:05;5.32;;;2.40;;
65759;SDS011;52496;51.082;5.066;2023-03-14T09:54:52;3.80;;;2.00;;
65759;SDS011;52496;51.082;5.066;2023-03-14T09:57:27;2.75;;;1.67;;
65759;SDS011;52496;51.082;5.066;2023-03-14T10:00:00;5.38;;;1.80;;
65759;SDS011;52496;51.082;5.066;2023-03-14T10:02:50;2.83;;;1.67;;
65759;SDS011;52496;51.082;5.066;2023-03-14T10:05:24;3.05;;;1.75;;
65759;SDS011;52496;51.082;5.066;2023-03-14T10:07:56;4.28;;;1.80;;
65759;SDS011;52496;51.082;5.066;2023-03-14T10:10:27;3.08;;;1.25;;
65759;SDS011;52496;51.082;5.066;2023-03-14T10:15:51;3.05;;;1.40;;
65759;SDS011;52496;51.082;5.066;2023-03-14T10:18:23;5.60;;;1.88;;
65759;SDS011;52496;51.082;5.066;2023-03-14T10:21:09;4.95;;;1.63;;
65759;SDS011;52496;51.082;5.066;2023-03-14T10:23:47;4.55;;;1.63;;
65759;SDS011;52496;51.082;5.066;2023-03-14T10:26:28;2.95;;;1.55;;
65759;SDS011;52496;51.082;5.066;2023-03-14T10:34:31;3.65;;;1.90;;
65759;SDS011;52496;51.082;5.066;2023-03-14T10:39:49;6.78;;;2.90;;
65759;SDS011;52496;51.082;5.066;2023-03-14T10:42:28;3.78;;;1.80;;
65759;SDS011;52496;51.082;5.066;2023-03-14T10:45:02;5.30;;;2.20;;
65759;SDS011;52496;51.082;5.066;2023-03-14T10:47:38;5.70;;;1.90;;
65759;SDS011;52496;51.082;5.066;2023-03-14T10:50:26;4.55;;;2.25;;
65759;SDS011;52496;51.082;5.066;2023-03-14T10:53:02;4.57;;;2.30;;
65759;SDS011;52496;51.082;5.066;2023-03-14T10:55:42;6.00;;;2.50;;
65759;SDS011;52496;51.082;5.066;2023-03-14T10:58:18;4.93;;;2.30;;
65759;SDS011;52496;51.082;5.066;2023-03-14T11:01:00;4.63;;;2.10;;
65759;SDS011;52496;51.082;5.066;2023-03-14T11:03:38;9.73;;;3.38;;
65759;SDS011;52496;51.082;5.066;2023-03-14T11:06:18;4.25;;;2.53;;
65759;SDS011;52496;51.082;5.066;2023-03-14T11:12:38;3.03;;;1.65;;
65759;SDS011;52496;51.082;5.066;2023-03-14T11:21:46;5.20;;;2.17;;
65759;SDS011;52496;51.082;5.066;2023-03-14T11:27:26;4.78;;;2.47;;
65759;SDS011;52496;51.082;5.066;2023-03-14T11:30:25;5.22;;;2.00;;
65759;SDS011;52496;51.082;5.066;2023-03-14T11:33:16;8.52;;;2.85;;
65759;SDS011;52496;51.082;5.066;2023-03-14T11:38:39;7.55;;;2.40;;
65759;SDS011;52496;51.082;5.066;2023-03-14T11:44:04;9.95;;;2.67;;
65759;SDS011;52496;51.082;5.066;2023-03-14T11:46:56;5.85;;;2.47;;
65759;SDS011;52496;51.082;5.066;2023-03-14T11:49:41;5.40;;;2.28;;
65759;SDS011;52496;51.082;5.066;2023-03-14T11:52:22;8.45;;;3.33;;
65759;SDS011;52496;51.082;5.066;2023-03-14T11:57:37;10.15;;;2.30;;
65759;SDS011;52496;51.082;5.066;2023-03-14T12:00:20;7.70;;;2.63;;
65759;SDS011;52496;51.082;5.066;2023-03-14T12:05:53;4.72;;;1.67;;
65759;SDS011;52496;51.082;5.066;2023-03-14T12:08:56;6.32;;;1.73;;
65759;SDS011;52496;51.082;5.066;2023-03-14T12:11:49;2.33;;;1.27;;
65759;SDS011;52496;51.082;5.066;2023-03-14T12:14:27;9.40;;;2.15;;
65759;SDS011;52496;51.082;5.066;2023-03-14T12:17:13;6.85;;;2.35;;
65759;SDS011;52496;51.082;5.066;2023-03-14T12:20:03;11.98;;;3.15;;
65759;SDS011;52496;51.082;5.066;2023-03-14T12:23:01;16.05;;;2.90;;
65759;SDS011;52496;51.082;5.066;2023-03-14T12:25:35;9.07;;;2.72;;
65759;SDS011;52496;51.082;5.066;2023-03-14T12:28:19;12.07;;;2.45;;
65759;SDS011;52496;51.082;5.066;2023-03-14T12:30:51;12.40;;;2.67;;
65759;SDS011;52496;51.082;5.066;2023-03-14T12:33:28;12.10;;;3.20;;
65759;SDS011;52496;51.082;5.066;2023-03-14T12:36:01;16.58;;;3.58;;
65759;SDS011;52496;51.082;5.066;2023-03-14T12:41:20;12.57;;;3.22;;
65759;SDS011;52496;51.082;5.066;2023-03-14T12:43:56;12.25;;;2.92;;
65759;SDS011;52496;51.082;5.066;2023-03-14T12:49:48;12.55;;;2.90;;
65759;SDS011;52496;51.082;5.066;2023-03-14T12:52:27;15.02;;;3.17;;
65759;SDS011;52496;51.082;5.066;2023-03-14T12:57:59;8.85;;;3.25;;
65759;SDS011;52496;51.082;5.066;2023-03-14T13:00:33;15.98;;;3.38;;
65759;SDS011;52496;51.082;5.066;2023-03-14T13:05:55;9.60;;;2.83;;
65759;SDS011;52496;51.082;5.066;2023-03-14T13:11:15;16.25;;;3.03;;
65759;SDS011;52496;51.082;5.066;2023-03-14T13:13:49;13.20;;;3.17;;
65759;SDS011;52496;51.082;5.066;2023-03-14T13:16:25;9.82;;;2.38;;
65759;SDS011;52496;51.082;5.066;2023-03-14T13:18:59;20.95;;;3.10;;
65759;SDS011;52496;51.082;5.066;2023-03-14T13:21:36;19.65;;;3.75;;
65759;SDS011;52496;51.082;5.066;2023-03-14T13:24:20;11.57;;;2.88;;
65759;SDS011;52496;51.082;5.066;2023-03-14T13:26:53;7.30;;;2.80;;
65759;SDS011;52496;51.082;5.066;2023-03-14T13:29:25;18.95;;;3.72;;
65759;SDS011;52496;51.082;5.066;2023-03-14T13:31:59;14.57;;;3.58;;
65759;SDS011;52496;51.082;5.066;2023-03-14T13:34:32;16.30;;;3.42;;
65759;SDS011;52496;51.082;5.066;2023-03-14T13:37:04;8.80;;;2.55;;
65759;SDS011;52496;51.082;5.066;2023-03-14T13:39:35;8.65;;;2.38;;
65759;SDS011;52496;51.082;5.066;2023-03-14T13:42:10;13.63;;;2.80;;
65759;SDS011;52496;51.082;5.066;2023-03-14T13:44:45;12.50;;;2.85;;
65759;SDS011;52496;51.082;5.066;2023-03-14T13:47:17;10.50;;;2.50;;
65759;SDS011;52496;51.082;5.066;2023-03-14T13:49:50;14.43;;;2.90;;
65759;SDS011;52496;51.082;5.066;2023-03-14T13:52:22;22.92;;;4.60;;
65759;SDS011;52496;51.082;5.066;2023-03-14T13:55:13;11.05;;;2.85;;
65759;SDS011;52496;51.082;5.066;2023-03-14T13:57:47;13.97;;;2.50;;
65759;SDS011;52496;51.082;5.066;2023-03-14T14:00:25;11.20;;;3.17;;
65759;SDS011;52496;51.082;5.066;2023-03-14T14:02:58;8.90;;;2.47;;
65759;SDS011;52496;51.082;5.066;2023-03-14T14:05:30;9.32;;;2.33;;
65759;SDS011;52496;51.082;5.066;2023-03-14T14:08:02;13.23;;;3.10;;
65759;SDS011;52496;51.082;5.066;2023-03-14T14:10:35;10.15;;;2.58;;
65759;SDS011;52496;51.082;5.066;2023-03-14T14:13:08;12.88;;;2.70;;
65759;SDS011;52496;51.082;5.066;2023-03-14T14:15:45;5.82;;;2.42;;
65759;SDS011;52496;51.082;5.066;2023-03-14T14:18:18;12.60;;;2.40;;
65759;SDS011;52496;51.082;5.066;2023-03-14T14:20:56;13.40;;;2.75;;
65759;SDS011;52496;51.082;5.066;2023-03-14T14:23:27;6.45;;;2.13;;
65759;SDS011;52496;51.082;5.066;2023-03-14T14:25:59;10.85;;;1.95;;
65759;SDS011;52496;51.082;5.066;2023-03-14T14:28:31;6.45;;;2.03;;
65759;SDS011;52496;51.082;5.066;2023-03-14T14:31:22;4.95;;;1.83;;
65759;SDS011;52496;51.082;5.066;2023-03-14T14:36:30;7.78;;;2.08;;
65759;SDS011;52496;51.082;5.066;2023-03-14T14:39:06;5.05;;;1.52;;
65759;SDS011;52496;51.082;5.066;2023-03-14T14:41:47;9.40;;;1.88;;
65759;SDS011;52496;51.082;5.066;2023-03-14T14:44:37;6.85;;;2.03;;
65759;SDS011;52496;51.082;5.066;2023-03-14T14:47:11;6.10;;;2.28;;
65759;SDS011;52496;51.082;5.066;2023-03-14T14:49:48;8.65;;;2.17;;
65759;SDS011;52496;51.082;5.066;2023-03-14T14:52:21;6.05;;;2.00;;
65759;SDS011;52496;51.082;5.066;2023-03-14T14:55:03;6.32;;;2.65;;
65759;SDS011;52496;51.082;5.066;2023-03-14T14:57:41;14.65;;;2.60;;
65759;SDS011;52496;51.082;5.066;2023-03-14T15:00:26;7.20;;;1.80;;
65759;SDS011;52496;51.082;5.066;2023-03-14T15:03:01;8.55;;;1.75;;
65759;SDS011;52496;51.082;5.066;2023-03-14T15:05:31;4.32;;;1.55;;
65759;SDS011;52496;51.082;5.066;2023-03-14T15:08:12;5.53;;;1.60;;
65759;SDS011;52496;51.082;5.066;2023-03-14T15:10:42;5.60;;;1.65;;
65759;SDS011;52496;51.082;5.066;2023-03-14T15:13:13;6.03;;;1.77;;
65759;SDS011;52496;51.082;5.066;2023-03-14T15:15:44;2.70;;;1.50;;
65759;SDS011;52496;51.082;5.066;2023-03-14T15:18:17;6.60;;;1.63;;
65759;SDS011;52496;51.082;5.066;2023-03-14T15:20:49;8.20;;;1.90;;
65759;SDS011;52496;51.082;5.066;2023-03-14T15:23:21;7.05;;;1.45;;
65759;SDS011;52496;51.082;5.066;2023-03-14T15:25:52;5.20;;;1.33;;
65759;SDS011;52496;51.082;5.066;2023-03-14T15:28:27;2.63;;;1.50;;
65759;SDS011;52496;51.082;5.066;2023-03-14T15:30:59;9.43;;;3.53;;
65759;SDS011;52496;51.082;5.066;2023-03-14T15:33:29;12.63;;;4.53;;
65759;SDS011;52496;51.082;5.066;2023-03-14T15:36:00;4.05;;;2.25;;
65759;SDS011;52496;51.082;5.066;2023-03-14T15:38:31;8.10;;;2.22;;
65759;SDS011;52496;51.082;5.066;2023-03-14T15:41:02;13.02;;;2.50;;
65759;SDS011;52496;51.082;5.066;2023-03-14T15:43:38;10.90;;;2.83;;
65759;SDS011;52496;51.082;5.066;2023-03-14T15:46:09;11.63;;;2.35;;
65759;SDS011;52496;51.082;5.066;2023-03-14T15:48:40;8.02;;;3.40;;
65759;SDS011;52496;51.082;5.066;2023-03-14T15:51:11;8.60;;;2.30;;
65759;SDS011;52496;51.082;5.066;2023-03-14T15:53:42;9.57;;;2.00;;
65759;SDS011;52496;51.082;5.066;2023-03-14T15:56:16;6.40;;;1.83;;
65759;SDS011;52496;51.082;5.066;2023-03-14T15:58:48;8.55;;;1.98;;
65759;SDS011;52496;51.082;5.066;2023-03-14T16:01:19;9.07;;;2.17;;
65759;SDS011;52496;51.082;5.066;2023-03-14T16:03:49;4.72;;;1.70;;
65759;SDS011;52496;51.082;5.066;2023-03-14T16:06:22;9.07;;;2.00;;
65759;SDS011;52496;51.082;5.066;2023-03-14T16:08:53;10.02;;;3.58;;
65759;SDS011;52496;51.082;5.066;2023-03-14T16:11:23;5.95;;;2.17;;
65759;SDS011;52496;51.082;5.066;2023-03-14T16:13:54;9.98;;;2.55;;
65759;SDS011;52496;51.082;5.066;2023-03-14T16:16:24;6.95;;;2.67;;
65759;SDS011;52496;51.082;5.066;2023-03-14T16:18:55;9.60;;;2.42;;
65759;SDS011;52496;51.082;5.066;2023-03-14T16:21:26;7.45;;;2.17;;
65759;SDS011;52496;51.082;5.066;2023-03-14T16:23:58;10.13;;;2.50;;
65759;SDS011;52496;51.082;5.066;2023-03-14T16:26:29;9.93;;;2.78;;
65759;SDS011;52496;51.082;5.066;2023-03-14T16:29:03;6.82;;;2.20;;
65759;SDS011;52496;51.082;5.066;2023-03-14T16:31:34;8.25;;;2.38;;